createdAt,value
2022-11-29T00:00:23.315Z,13.33
2022-11-29T00:05:25.202Z,13.33
2022-11-29T00:10:27.140Z,14.47
2022-11-29T00:15:28.880Z,13.47
2022-11-29T00:20:31.008Z,15.63
2022-11-29T00:25:32.931Z,14.97
2022-11-29T00:30:34.873Z,14.50
2022-11-29T00:35:36.786Z,14.80
2022-11-29T00:40:38.662Z,15.30
2022-11-29T00:45:40.645Z,15.00
2022-11-29T00:50:42.673Z,16.50
2022-11-29T00:55:45.325Z,15.20
2022-11-29T01:00:47.763Z,14.20
2022-11-29T01:05:49.726Z,13.50
2022-11-29T01:11:01.703Z,13.47
2022-11-29T01:16:04.863Z,14.10
2022-11-29T01:21:10.042Z,14.67
2022-11-29T01:26:14.803Z,12.57
2022-11-29T01:31:20.667Z,13.10
2022-11-29T01:36:22.854Z,13.27
2022-11-29T01:41:27.743Z,11.80
2022-11-29T01:46:33.050Z,11.43
2022-11-29T01:51:37.020Z,11.37
2022-11-29T01:56:39.760Z,10.07
2022-11-29T02:01:42.302Z,11.60
2022-11-29T02:06:44.439Z,10.80
2022-11-29T02:12:26.226Z,12.07
2022-11-29T02:17:46.583Z,11.23
2022-11-29T02:23:13.712Z,10.83
2022-11-29T02:28:45.877Z,11.03
2022-11-29T02:33:56.898Z,10.60
2022-11-29T02:39:28.826Z,11.07
2022-11-29T02:44:49.211Z,11.07
2022-11-29T02:50:00.666Z,11.00
2022-11-29T02:55:16.147Z,10.93
2022-11-29T03:00:22.993Z,10.87
2022-11-29T03:05:36.840Z,13.10
2022-11-29T03:11:00.023Z,12.40
2022-11-29T03:16:23.023Z,12.73
2022-11-29T03:21:34.315Z,13.23
2022-11-29T03:26:44.017Z,13.87
2022-11-29T03:31:55.111Z,13.43
2022-11-29T03:37:14.548Z,14.10
2022-11-29T03:42:48.038Z,12.87
2022-11-29T03:48:20.762Z,13.07
2022-11-29T03:53:39.355Z,12.33
2022-11-29T03:59:00.101Z,12.20
2022-11-29T04:04:25.343Z,12.90
2022-11-29T04:09:40.035Z,12.33
2022-11-29T04:15:14.109Z,11.67
2022-11-29T04:20:35.003Z,13.03
2022-11-29T04:26:18.559Z,12.93
2022-11-29T04:31:32.832Z,11.00
2022-11-29T04:37:00.848Z,11.70
2022-11-29T04:42:59.839Z,11.50
2022-11-29T04:48:20.470Z,11.83
2022-11-29T04:53:29.518Z,11.10
2022-11-29T04:58:51.894Z,10.63
2022-11-29T05:04:01.227Z,9.93
2022-11-29T05:09:46.467Z,10.53
2022-11-29T05:15:12.808Z,9.37
2022-11-29T05:20:32.960Z,10.40
2022-11-29T05:26:01.342Z,10.37
2022-11-29T05:31:34.106Z,9.20
2022-11-29T05:37:00.082Z,9.20
2022-11-29T05:42:13.291Z,10.93
2022-11-29T05:47:28.257Z,10.17
2022-11-29T05:52:56.218Z,10.70
2022-11-29T05:58:00.458Z,10.63
2022-11-29T06:03:35.254Z,11.90
2022-11-29T06:08:50.415Z,11.03
2022-11-29T06:14:13.402Z,12.67
2022-11-29T06:19:27.317Z,12.27
2022-11-29T06:24:29.912Z,11.70
2022-11-29T06:29:54.261Z,11.47
2022-11-29T06:35:35.802Z,11.20
2022-11-29T06:40:38.038Z,12.67
2022-11-29T06:45:46.907Z,12.83
2022-11-29T06:51:25.165Z,12.10
2022-11-29T06:56:51.650Z,13.53
2022-11-29T07:02:20.450Z,14.13
2022-11-29T07:07:23.772Z,12.67
2022-11-29T07:12:26.106Z,13.17
2022-11-29T07:17:32.736Z,13.23
2022-11-29T07:23:08.839Z,12.77
2022-11-29T07:28:20.375Z,13.87
2022-11-29T07:34:05.881Z,12.77
2022-11-29T07:39:46.125Z,15.17
2022-11-29T07:44:50.855Z,14.10
2022-11-29T07:49:52.787Z,12.77
2022-11-29T07:54:54.587Z,12.97
2022-11-29T07:59:56.489Z,14.57
2022-11-29T08:04:58.512Z,13.03
2022-11-29T08:10:00.434Z,13.13
2022-11-29T08:15:02.543Z,14.30
2022-11-29T08:20:05.634Z,13.63
2022-11-29T08:25:08.268Z,14.30
2022-11-29T08:30:10.412Z,13.67
2022-11-29T08:35:12.447Z,14.77
2022-11-29T08:40:15.178Z,15.27
2022-11-29T08:45:17.170Z,15.23
2022-11-29T08:50:19.216Z,15.83
2022-11-29T08:55:22.758Z,16.23
2022-11-29T09:00:24.534Z,16.60
2022-11-29T09:05:26.464Z,16.57
2022-11-29T09:10:28.189Z,17.07
2022-11-29T09:15:30.071Z,17.23
2022-11-29T09:20:33.177Z,17.27
2022-11-29T09:25:34.942Z,16.03
2022-11-29T09:30:38.099Z,16.20
2022-11-29T09:35:41.226Z,15.07
2022-11-29T09:41:27.529Z,14.90
2022-11-29T09:46:58.871Z,13.27
2022-11-29T09:52:05.445Z,15.30
2022-11-29T09:57:10.833Z,16.37
2022-11-29T10:02:36.154Z,16.50
2022-11-29T10:07:50.533Z,15.33
2022-11-29T10:12:56.462Z,15.50
2022-11-29T10:18:23.874Z,15.90
2022-11-29T10:23:36.130Z,16.37
2022-11-29T10:28:44.644Z,15.70
2022-11-29T10:33:47.451Z,16.40
2022-11-29T10:38:50.710Z,16.77
2022-11-29T10:43:58.758Z,15.13
2022-11-29T10:49:07.062Z,14.30
2022-11-29T10:54:33.350Z,14.00
2022-11-29T10:59:35.109Z,14.50
2022-11-29T11:04:45.630Z,15.43
2022-11-29T11:09:49.568Z,16.13
2022-11-29T11:14:51.522Z,16.67
2022-11-29T11:19:57.813Z,16.90
2022-11-29T11:25:01.014Z,16.10
2022-11-29T11:30:05.546Z,16.60
2022-11-29T11:35:22.673Z,16.93
2022-11-29T11:40:30.343Z,18.60
2022-11-29T11:45:37.063Z,17.87
2022-11-29T11:50:52.265Z,17.00
2022-11-29T11:55:55.887Z,15.67
2022-11-29T12:01:12.838Z,16.73
2022-11-29T12:06:26.086Z,15.43
2022-11-29T12:11:37.262Z,14.60
2022-11-29T12:16:40.508Z,14.03
2022-11-29T12:21:46.530Z,15.10
2022-11-29T12:26:57.974Z,15.83
2022-11-29T12:32:18.942Z,15.33
2022-11-29T12:37:29.812Z,16.73
2022-11-29T12:42:56.487Z,15.43
2022-11-29T12:48:20.015Z,16.23
2022-11-29T12:53:28.424Z,16.93
2022-11-29T12:58:46.440Z,17.10
2022-11-29T13:04:03.319Z,17.07
2022-11-29T13:09:32.527Z,17.20
2022-11-29T13:14:59.303Z,18.90
2022-11-29T13:20:14.647Z,16.63
2022-11-29T13:25:35.770Z,16.27
2022-11-29T13:30:39.276Z,15.13
2022-11-29T13:35:56.425Z,14.67
2022-11-29T13:41:21.046Z,14.83
2022-11-29T13:46:30.260Z,13.67
2022-11-29T13:51:38.651Z,14.73
2022-11-29T13:56:47.792Z,13.50
2022-11-29T14:01:53.730Z,15.37
2022-11-29T14:07:04.905Z,13.53
2022-11-29T14:12:18.929Z,14.43
2022-11-29T14:17:47.450Z,14.10
2022-11-29T14:23:04.835Z,14.27
2022-11-29T14:28:12.882Z,13.80
2022-11-29T14:33:20.662Z,13.73
2022-11-29T14:38:47.344Z,12.93
2022-11-29T14:43:49.351Z,13.33
2022-11-29T14:48:57.256Z,12.97
2022-11-29T14:54:16.360Z,12.27
2022-11-29T14:59:51.580Z,13.67
2022-11-29T15:04:56.847Z,12.47
2022-11-29T15:10:04.977Z,12.97
2022-11-29T15:15:36.599Z,12.57
2022-11-29T15:20:44.873Z,13.10
2022-11-29T15:26:00.267Z,12.87
2022-11-29T15:31:07.965Z,12.47
2022-11-29T15:36:21.025Z,12.90
2022-11-29T15:41:33.870Z,12.80
2022-11-29T15:46:35.875Z,12.90
2022-11-29T15:51:39.110Z,13.60
2022-11-29T15:56:43.968Z,14.07
2022-11-29T16:01:48.352Z,12.97
2022-11-29T16:06:51.755Z,12.73
2022-11-29T16:11:53.890Z,13.80
2022-11-29T16:16:59.688Z,13.80
2022-11-29T16:22:10.808Z,12.00
2022-11-29T16:27:14.269Z,13.83
2022-11-29T16:32:25.966Z,12.93
2022-11-29T16:37:35.324Z,12.90
2022-11-29T16:42:38.362Z,13.63
2022-11-29T16:47:52.822Z,13.93
2022-11-29T16:52:56.791Z,13.53
2022-11-29T16:57:59.135Z,13.27
2022-11-29T17:03:00.884Z,13.00
2022-11-29T17:08:02.841Z,14.37
2022-11-29T17:13:04.764Z,12.37
2022-11-29T17:18:06.626Z,12.10
2022-11-29T17:23:09.346Z,18.77
2022-11-29T17:28:11.085Z,15.93
2022-11-29T17:33:12.850Z,14.27
2022-11-29T17:38:14.581Z,12.97
2022-11-29T17:43:16.484Z,14.67
2022-11-29T17:48:18.702Z,16.37
2022-11-29T17:53:20.487Z,19.77
2022-11-29T17:58:22.377Z,17.40
2022-11-29T18:03:24.408Z,15.43
2022-11-29T18:08:26.994Z,15.87
2022-11-29T18:13:28.906Z,16.00
2022-11-29T18:18:31.366Z,16.87
2022-11-29T18:23:36.355Z,16.03
2022-11-29T18:28:40.274Z,15.67
2022-11-29T18:33:44.338Z,15.60
2022-11-29T18:38:47.434Z,16.93
2022-11-29T18:43:54.941Z,16.07
2022-11-29T18:48:56.834Z,16.93
2022-11-29T18:53:59.540Z,16.17
2022-11-29T18:59:10.271Z,16.17
2022-11-29T19:04:21.596Z,18.93
2022-11-29T19:09:23.777Z,18.70
2022-11-29T19:14:25.520Z,17.77
2022-11-29T19:19:27.290Z,18.13
2022-11-29T19:24:29.383Z,16.13
2022-11-29T19:29:35.208Z,21.40
2022-11-29T19:34:40.449Z,17.60
2022-11-29T19:39:42.821Z,17.80
2022-11-29T19:45:15.321Z,18.43
2022-11-29T19:50:07.014Z,15.97
2022-11-29T19:55:09.271Z,17.50
2022-11-29T20:00:11.895Z,16.70
2022-11-29T20:05:14.197Z,19.10
2022-11-29T20:10:16.016Z,17.23
2022-11-29T20:15:17.924Z,17.03
2022-11-29T20:20:20.083Z,17.37
2022-11-29T20:25:22.171Z,15.70
2022-11-29T20:30:25.825Z,29.83
2022-11-29T20:35:28.294Z,24.43
2022-11-29T20:40:43.968Z,16.87
2022-11-29T20:45:46.022Z,32.33
2022-11-29T20:50:56.365Z,19.53
2022-11-29T20:55:58.419Z,22.67
2022-11-29T21:01:00.589Z,15.77
2022-11-29T21:06:05.264Z,15.63
2022-11-29T21:11:10.272Z,16.23
2022-11-29T21:16:12.826Z,16.80
2022-11-29T21:21:44.775Z,15.67
2022-11-29T21:26:51.370Z,18.47
2022-11-29T21:31:54.384Z,16.47
2022-11-29T21:36:58.377Z,16.67
2022-11-29T21:42:00.411Z,14.77
2022-11-29T21:47:02.330Z,17.30
2022-11-29T21:52:05.122Z,16.50
2022-11-29T21:57:07.128Z,16.00
2022-11-29T22:02:09.128Z,14.93
2022-11-29T22:07:11.188Z,14.87
2022-11-29T22:12:33.133Z,16.23
2022-11-29T22:17:34.683Z,14.97
2022-11-29T22:22:36.394Z,16.30
2022-11-29T22:27:38.276Z,16.73
2022-11-29T22:32:40.369Z,15.53
2022-11-29T22:37:42.277Z,15.67
2022-11-29T22:42:44.049Z,15.20
2022-11-29T22:47:46.058Z,16.10
2022-11-29T22:52:49.011Z,16.93
2022-11-29T22:57:53.398Z,16.17
2022-11-29T23:02:58.218Z,16.00
2022-11-29T23:07:59.976Z,14.90
2022-11-29T23:13:02.906Z,15.03
2022-11-29T23:18:04.698Z,15.97
2022-11-29T23:23:06.692Z,15.53
2022-11-29T23:28:08.404Z,17.13
2022-11-29T23:33:10.383Z,16.23
2022-11-29T23:38:12.094Z,17.60
2022-11-29T23:43:14.001Z,16.90
2022-11-29T23:48:15.906Z,16.03
2022-11-29T23:53:19.018Z,17.93
2022-11-29T23:58:21.034Z,18.07
